Titusville, FL

8:03 PM EST on November 24, 2014 (GMT -0500)
Nasa Shuttle | Change Station
CLOSE
Current Station
Airport
Location: Nasa Shuttle,
Elevation: 10 ft
Nearby Weather Stations

Elev 10 ft 28.61 °N, 80.69 °W | Updated 5 minutes ago

Partly Cloudy
Partly Cloudy
74 °F
Feels Like 74 °F
N
6
Wind Variable Wind from South

Today
High -- | Low -- °F
--% Chance of Precip.
Yesterday
High -- | Low -- °F
Precip. -- in
6:53 AM 5:26 PM
Waxing Crescent, 8% visible
Pressure 30.00 in
Visibility 10.0 miles
Clouds Clear
Dew Point 72 °F
Humidity 92%
Rainfall 0.00 in
Snow Depth Not available.
UV 0 out of 12
Pollen 3.90 out of 12
Air Quality Not available.
Flu Activity Not available.
METAR KTTS 250058Z AUTO 17005KT 10SM CLR 23/22 A2999 RMK AO2 SLP159 T02340220 VISNO RWY33 CHINO RWY33 $

More Conditions Fewer Conditions

Pressure 30.00 in
Visibility 10.0 miles
Clouds Clear
Dew Point 72 °F
Humidity 92%
Rainfall 0.00 in
Snow Depth Not available.
UV 0 out of 12
Pollen 3.90 out of 12
Air Quality Not available.
Flu Activity Not available.
METAR KTTS 250058Z AUTO 17005KT 10SM CLR 23/22 A2999 RMK AO2 SLP159 T02340220 VISNO RWY33 CHINO RWY33 $

More Conditions Fewer Conditions

Nowcast | as of 6:00 PM EST on November 24, 2014

Southerly winds ahead of a cold front moving into the Florida Panhandle tonight will keep warm temperatures across east central Florida. Lows will drop into the upper 60s to lower 70s across the area. A strong jet stream across the southeast states will add mid level lift across central Florida late tonight ahead of the cold front with increasing cloudiness and a chance for the development of late night showers. Small craft operators should exercise caution across the offshore waters north of Sebastian Inlet. Additional details...including graphics are available online at: http://www.Srh.NOAA.Gov/mlb/blog.Php

×

10-Day Weather Forecast

Almanac

Astronomy

Nov. 24, 2014 Rise Set
Actual Time
Civil Twilight
Nautical Twilight
Astronomical Twilight
Moon
Length of Visible Light
Length of Day
Tomorrow will be .
, % of the Moon is Illuminated

Today's Extremes

State Highs State Lows

Community

WunderPhotos

Upload Photos

1,773,446 photos uploaded!

WunderBlogs® & News

Nearby

Air Quality

  Air Quality AQ Index Pollutant
Not available.

Snow Depth

Station Depth Elevation

Earthquake Activity

City Distance Mag. Time & Date
Minimum magnitude displayed is 2.5.

Coastal Water Temperatures

Place Temperature

Nearby Weather Stations